sensor_id;sensor_type;location;lat;lon;timestamp;pressure;altitude;pressure_sealevel;temperature;humidity
78623;BME280;67943;54.412;9.502;2023-07-13T00:03:51;101027.56;;;15.20;83.20
78623;BME280;67943;54.412;9.502;2023-07-13T00:08:54;101030.00;;;15.02;84.70
78623;BME280;67943;54.412;9.502;2023-07-13T00:13:56;101023.78;;;15.03;84.87
78623;BME280;67943;54.412;9.502;2023-07-13T00:18:57;101030.75;;;15.05;84.65
78623;BME280;67943;54.412;9.502;2023-07-13T00:24:02;101021.81;;;15.08;84.46
78623;BME280;67943;54.412;9.502;2023-07-13T00:29:03;101020.34;;;15.01;85.08
78623;BME280;67943;54.412;9.502;2023-07-13T00:34:06;101027.13;;;15.08;84.69
78623;BME280;67943;54.412;9.502;2023-07-13T00:39:09;101020.00;;;15.10;84.76
78623;BME280;67943;54.412;9.502;2023-07-13T00:44:13;101021.03;;;15.06;85.39
78623;BME280;67943;54.412;9.502;2023-07-13T00:49:17;101017.00;;;14.96;85.30
78623;BME280;67943;54.412;9.502;2023-07-13T00:54:23;101006.09;;;15.03;85.55
78623;BME280;67943;54.412;9.502;2023-07-13T00:59:26;101011.81;;;14.93;86.21
78623;BME280;67943;54.412;9.502;2023-07-13T01:04:27;101001.66;;;15.04;85.61
78623;BME280;67943;54.412;9.502;2023-07-13T01:09:30;101002.34;;;15.09;85.61
78623;BME280;67943;54.412;9.502;2023-07-13T01:14:32;101009.38;;;15.10;85.25
78623;BME280;67943;54.412;9.502;2023-07-13T01:19:36;101015.03;;;15.01;85.65
78623;BME280;67943;54.412;9.502;2023-07-13T01:24:42;101016.88;;;14.99;85.75
78623;BME280;67943;54.412;9.502;2023-07-13T01:29:45;101016.63;;;15.05;85.26
78623;BME280;67943;54.412;9.502;2023-07-13T01:34:48;101012.88;;;14.87;86.50
78623;BME280;67943;54.412;9.502;2023-07-13T01:39:51;101011.84;;;14.91;86.26
78623;BME280;67943;54.412;9.502;2023-07-13T01:44:53;101008.22;;;14.94;86.31
78623;BME280;67943;54.412;9.502;2023-07-13T01:49:54;101011.75;;;14.94;86.02
78623;BME280;67943;54.412;9.502;2023-07-13T01:54:57;101000.34;;;14.92;86.19
78623;BME280;67943;54.412;9.502;2023-07-13T01:59:58;101007.44;;;14.92;85.90
78623;BME280;67943;54.412;9.502;2023-07-13T02:05:00;101007.38;;;14.93;85.86
78623;BME280;67943;54.412;9.502;2023-07-13T02:10:04;101004.78;;;14.92;85.80
78623;BME280;67943;54.412;9.502;2023-07-13T02:15:06;101002.41;;;14.84;86.53
78623;BME280;67943;54.412;9.502;2023-07-13T02:20:08;101004.00;;;14.88;86.50
78623;BME280;67943;54.412;9.502;2023-07-13T02:25:11;100997.75;;;14.91;86.71
78623;BME280;67943;54.412;9.502;2023-07-13T02:30:13;100987.84;;;14.96;86.73
78623;BME280;67943;54.412;9.502;2023-07-13T02:35:15;100988.97;;;14.89;87.45
78623;BME280;67943;54.412;9.502;2023-07-13T02:40:18;100985.09;;;14.99;87.19
78623;BME280;67943;54.412;9.502;2023-07-13T02:45:19;100995.09;;;14.91;87.31
78623;BME280;67943;54.412;9.502;2023-07-13T02:50:21;100985.31;;;14.93;87.32
78623;BME280;67943;54.412;9.502;2023-07-13T02:55:24;100983.56;;;14.92;87.29
78623;BME280;67943;54.412;9.502;2023-07-13T03:00:25;100972.28;;;14.86;87.96
78623;BME280;67943;54.412;9.502;2023-07-13T03:05:27;100975.75;;;14.89;88.01
78623;BME280;67943;54.412;9.502;2023-07-13T03:10:30;100980.22;;;14.86;88.44
78623;BME280;67943;54.412;9.502;2023-07-13T03:15:31;100963.63;;;14.81;89.06
78623;BME280;67943;54.412;9.502;2023-07-13T03:20:33;100976.53;;;14.91;88.78
78623;BME280;67943;54.412;9.502;2023-07-13T03:25:36;100972.13;;;14.91;88.83
78623;BME280;67943;54.412;9.502;2023-07-13T03:30:38;100968.59;;;14.91;89.15
78623;BME280;67943;54.412;9.502;2023-07-13T03:35:40;100984.94;;;15.02;89.12
78623;BME280;67943;54.412;9.502;2023-07-13T03:40:43;100986.22;;;15.15;88.60
78623;BME280;67943;54.412;9.502;2023-07-13T03:45:44;100982.66;;;15.16;89.06
78623;BME280;67943;54.412;9.502;2023-07-13T03:50:46;100984.03;;;15.03;89.56
78623;BME280;67943;54.412;9.502;2023-07-13T03:55:50;100992.50;;;15.12;89.64
78623;BME280;67943;54.412;9.502;2023-07-13T04:00:53;100993.16;;;15.19;89.31
78623;BME280;67943;54.412;9.502;2023-07-13T04:05:55;100987.63;;;15.25;89.18
78623;BME280;67943;54.412;9.502;2023-07-13T04:11:04;100985.19;;;15.19;88.95
78623;BME280;67943;54.412;9.502;2023-07-13T04:16:05;100984.44;;;15.39;88.54
78623;BME280;67943;54.412;9.502;2023-07-13T04:21:08;100992.84;;;15.50;87.48
78623;BME280;67943;54.412;9.502;2023-07-13T04:26:11;101001.03;;;15.67;87.01
78623;BME280;67943;54.412;9.502;2023-07-13T04:31:12;101009.06;;;15.66;86.93
78623;BME280;67943;54.412;9.502;2023-07-13T04:36:14;101019.19;;;15.78;86.79
78623;BME280;67943;54.412;9.502;2023-07-13T04:41:18;101016.53;;;15.78;87.06
78623;BME280;67943;54.412;9.502;2023-07-13T04:46:19;101038.06;;;15.92;85.91
78623;BME280;67943;54.412;9.502;2023-07-13T04:51:21;101060.66;;;15.80;85.66
78623;BME280;67943;54.412;9.502;2023-07-13T04:56:23;101064.53;;;15.72;82.78
78623;BME280;67943;54.412;9.502;2023-07-13T05:01:25;101071.75;;;15.43;82.91
78623;BME280;67943;54.412;9.502;2023-07-13T05:06:27;101059.78;;;15.08;84.74
78623;BME280;67943;54.412;9.502;2023-07-13T05:11:32;101055.78;;;14.98;84.67
78623;BME280;67943;54.412;9.502;2023-07-13T05:16:33;101050.28;;;15.03;85.08
78623;BME280;67943;54.412;9.502;2023-07-13T05:21:35;101059.28;;;14.99;83.87
78623;BME280;67943;54.412;9.502;2023-07-13T05:26:38;101063.66;;;15.00;83.17
78623;BME280;67943;54.412;9.502;2023-07-13T05:31:40;101048.44;;;15.05;83.61
78623;BME280;67943;54.412;9.502;2023-07-13T05:36:41;101047.84;;;15.22;83.57
78623;BME280;67943;54.412;9.502;2023-07-13T05:41:44;101067.28;;;15.45;82.32
78623;BME280;67943;54.412;9.502;2023-07-13T05:46:46;101062.56;;;15.53;82.85
78623;BME280;67943;54.412;9.502;2023-07-13T05:51:47;101068.63;;;15.80;82.83
78623;BME280;67943;54.412;9.502;2023-07-13T05:56:50;101067.19;;;15.94;82.84
78623;BME280;67943;54.412;9.502;2023-07-13T06:01:51;101070.13;;;15.88;82.65
78623;BME280;67943;54.412;9.502;2023-07-13T06:06:53;101071.41;;;15.99;83.36
78623;BME280;67943;54.412;9.502;2023-07-13T06:11:56;101075.97;;;16.17;83.96
78623;BME280;67943;54.412;9.502;2023-07-13T06:16:58;101074.13;;;16.41;84.55
78623;BME280;67943;54.412;9.502;2023-07-13T06:21:59;101087.16;;;16.69;84.19
78623;BME280;67943;54.412;9.502;2023-07-13T06:27:03;101084.50;;;16.90;84.56
78623;BME280;67943;54.412;9.502;2023-07-13T06:32:05;101091.00;;;17.23;85.47
78623;BME280;67943;54.412;9.502;2023-07-13T06:37:07;101096.75;;;17.33;85.78
78623;BME280;67943;54.412;9.502;2023-07-13T06:42:10;101091.50;;;17.51;86.33
78623;BME280;67943;54.412;9.502;2023-07-13T06:47:12;101095.41;;;17.43;87.51
78623;BME280;67943;54.412;9.502;2023-07-13T06:52:14;101084.03;;;17.60;86.92
78623;BME280;67943;54.412;9.502;2023-07-13T06:57:16;101085.47;;;17.67;87.18
78623;BME280;67943;54.412;9.502;2023-07-13T07:02:18;101093.81;;;17.59;88.21
78623;BME280;67943;54.412;9.502;2023-07-13T07:07:19;101100.66;;;17.65;88.39
78623;BME280;67943;54.412;9.502;2023-07-13T07:12:22;101094.41;;;17.66;87.53
78623;BME280;67943;54.412;9.502;2023-07-13T07:17:24;101108.94;;;17.77;85.89
78623;BME280;67943;54.412;9.502;2023-07-13T07:22:26;101095.94;;;17.90;86.66
78623;BME280;67943;54.412;9.502;2023-07-13T07:27:29;101092.34;;;18.27;85.18
78623;BME280;67943;54.412;9.502;2023-07-13T07:32:32;101093.63;;;18.37;85.53
78623;BME280;67943;54.412;9.502;2023-07-13T07:37:33;101108.31;;;18.46;84.75
78623;BME280;67943;54.412;9.502;2023-07-13T07:42:36;101114.63;;;18.62;80.68
78623;BME280;67943;54.412;9.502;2023-07-13T07:47:38;101112.22;;;18.39;79.22
78623;BME280;67943;54.412;9.502;2023-07-13T07:52:39;101105.69;;;18.63;81.08
78623;BME280;67943;54.412;9.502;2023-07-13T07:57:42;101100.91;;;18.87;77.00
78623;BME280;67943;54.412;9.502;2023-07-13T08:02:44;101090.00;;;19.26;75.82
78623;BME280;67943;54.412;9.502;2023-07-13T08:07:46;101095.28;;;19.76;74.56
78623;BME280;67943;54.412;9.502;2023-07-13T08:12:49;101096.06;;;19.78;72.15
78623;BME280;67943;54.412;9.502;2023-07-13T08:17:50;101097.75;;;19.31;73.35
78623;BME280;67943;54.412;9.502;2023-07-13T08:22:52;101091.56;;;19.30;74.89
78623;BME280;67943;54.412;9.502;2023-07-13T08:27:55;101090.44;;;19.51;74.56
78623;BME280;67943;54.412;9.502;2023-07-13T08:32:56;101103.00;;;19.65;71.92
78623;BME280;67943;54.412;9.502;2023-07-13T08:37:58;101090.34;;;19.53;71.30
78623;BME280;67943;54.412;9.502;2023-07-13T08:43:02;101084.34;;;19.32;73.00
78623;BME280;67943;54.412;9.502;2023-07-13T08:48:05;101083.00;;;19.23;74.18
78623;BME280;67943;54.412;9.502;2023-07-13T08:53:11;101091.66;;;19.62;72.41
78623;BME280;67943;54.412;9.502;2023-07-13T08:58:17;101101.97;;;19.68;67.31
78623;BME280;67943;54.412;9.502;2023-07-13T09:03:22;101090.56;;;19.97;67.75
78623;BME280;67943;54.412;9.502;2023-07-13T09:08:38;101097.19;;;20.21;67.03
78623;BME280;67943;54.412;9.502;2023-07-13T09:13:54;101100.09;;;20.64;65.90
78623;BME280;67943;54.412;9.502;2023-07-13T09:19:03;101104.41;;;21.11;60.44
78623;BME280;67943;54.412;9.502;2023-07-13T09:24:26;101111.38;;;21.43;59.74
78623;BME280;67943;54.412;9.502;2023-07-13T09:29:34;101107.19;;;21.53;59.03
78623;BME280;67943;54.412;9.502;2023-07-13T09:34:35;101108.00;;;21.26;60.72
78623;BME280;67943;54.412;9.502;2023-07-13T09:39:39;101117.34;;;21.18;61.26
78623;BME280;67943;54.412;9.502;2023-07-13T09:44:51;101129.63;;;21.37;61.89
78623;BME280;67943;54.412;9.502;2023-07-13T09:49:54;101129.16;;;21.44;57.92
78623;BME280;67943;54.412;9.502;2023-07-13T09:54:59;101135.84;;;21.51;56.12
78623;BME280;67943;54.412;9.502;2023-07-13T10:00:03;101129.75;;;21.64;58.34
78623;BME280;67943;54.412;9.502;2023-07-13T10:05:07;101128.50;;;21.55;58.65
78623;BME280;67943;54.412;9.502;2023-07-13T10:10:14;101151.53;;;21.29;57.68
78623;BME280;67943;54.412;9.502;2023-07-13T10:15:19;101153.34;;;21.29;57.25
78623;BME280;67943;54.412;9.502;2023-07-13T10:20:22;101144.19;;;21.75;55.37
78623;BME280;67943;54.412;9.502;2023-07-13T10:25:26;101160.44;;;22.01;56.10
78623;BME280;67943;54.412;9.502;2023-07-13T10:30:32;101156.66;;;22.32;55.57
78623;BME280;67943;54.412;9.502;2023-07-13T10:35:37;101153.84;;;22.06;57.06
78623;BME280;67943;54.412;9.502;2023-07-13T10:40:43;101131.63;;;22.18;56.48
78623;BME280;67943;54.412;9.502;2023-07-13T10:45:48;101135.19;;;22.46;56.59
78623;BME280;67943;54.412;9.502;2023-07-13T10:50:52;101137.16;;;22.83;51.79
78623;BME280;67943;54.412;9.502;2023-07-13T10:55:57;101140.75;;;22.70;54.42
78623;BME280;67943;54.412;9.502;2023-07-13T11:01:08;101139.91;;;23.09;52.46
78623;BME280;67943;54.412;9.502;2023-07-13T11:06:13;101131.88;;;22.55;52.37
78623;BME280;67943;54.412;9.502;2023-07-13T11:11:35;101143.47;;;22.29;53.59
78623;BME280;67943;54.412;9.502;2023-07-13T11:16:43;101151.31;;;22.32;52.43
78623;BME280;67943;54.412;9.502;2023-07-13T11:22:01;101154.16;;;22.43;54.08
78623;BME280;67943;54.412;9.502;2023-07-13T11:27:21;101149.84;;;22.67;52.71
78623;BME280;67943;54.412;9.502;2023-07-13T11:32:29;101160.59;;;22.67;52.06
78623;BME280;67943;54.412;9.502;2023-07-13T11:37:31;101162.56;;;23.05;51.19
78623;BME280;67943;54.412;9.502;2023-07-13T11:42:33;101170.31;;;23.09;50.50
78623;BME280;67943;54.412;9.502;2023-07-13T11:47:40;101174.22;;;23.69;50.04
78623;BME280;67943;54.412;9.502;2023-07-13T11:52:43;101173.22;;;24.20;48.66
78623;BME280;67943;54.412;9.502;2023-07-13T11:57:47;101178.69;;;24.32;48.64
78623;BME280;67943;54.412;9.502;2023-07-13T12:02:54;101194.06;;;24.30;47.63
78623;BME280;67943;54.412;9.502;2023-07-13T12:07:56;101175.44;;;23.65;49.87
78623;BME280;67943;54.412;9.502;2023-07-13T12:13:00;101178.03;;;23.66;49.21
78623;BME280;67943;54.412;9.502;2023-07-13T12:18:11;101189.53;;;22.62;52.41
78623;BME280;67943;54.412;9.502;2023-07-13T12:23:21;101196.66;;;22.49;52.91
78623;BME280;67943;54.412;9.502;2023-07-13T12:28:31;101201.91;;;22.92;54.67
78623;BME280;67943;54.412;9.502;2023-07-13T12:33:34;101202.78;;;23.32;49.87
78623;BME280;67943;54.412;9.502;2023-07-13T12:38:38;101203.91;;;23.15;51.44
78623;BME280;67943;54.412;9.502;2023-07-13T12:43:41;101221.38;;;23.47;50.42
78623;BME280;67943;54.412;9.502;2023-07-13T12:48:43;101220.66;;;23.71;48.63
78623;BME280;67943;54.412;9.502;2023-07-13T12:53:49;101230.44;;;23.59;49.50
78623;BME280;67943;54.412;9.502;2023-07-13T12:58:57;101247.00;;;22.58;51.49
78623;BME280;67943;54.412;9.502;2023-07-13T13:04:01;101249.47;;;22.20;53.30
78623;BME280;67943;54.412;9.502;2023-07-13T13:09:11;101253.72;;;21.80;54.46
78623;BME280;67943;54.412;9.502;2023-07-13T13:14:13;101253.41;;;21.26;56.34
78623;BME280;67943;54.412;9.502;2023-07-13T13:19:18;101257.16;;;21.82;57.38
78623;BME280;67943;54.412;9.502;2023-07-13T13:24:22;101262.44;;;22.54;54.59
78623;BME280;67943;54.412;9.502;2023-07-13T13:29:25;101248.16;;;22.68;53.55
78623;BME280;67943;54.412;9.502;2023-07-13T13:34:28;101252.06;;;22.07;54.33
78623;BME280;67943;54.412;9.502;2023-07-13T13:39:33;101268.16;;;21.63;55.22
78623;BME280;67943;54.412;9.502;2023-07-13T13:44:35;101263.34;;;21.54;56.00
78623;BME280;67943;54.412;9.502;2023-07-13T13:49:38;101267.66;;;21.56;56.77
78623;BME280;67943;54.412;9.502;2023-07-13T13:54:40;101263.16;;;21.71;57.05
78623;BME280;67943;54.412;9.502;2023-07-13T13:59:41;101266.16;;;21.95;55.58
78623;BME280;67943;54.412;9.502;2023-07-13T14:04:44;101265.22;;;21.96;55.52
78623;BME280;67943;54.412;9.502;2023-07-13T14:09:47;101269.19;;;22.05;55.75
78623;BME280;67943;54.412;9.502;2023-07-13T14:14:48;101261.75;;;21.80;55.03
78623;BME280;67943;54.412;9.502;2023-07-13T14:19:51;101274.16;;;21.67;56.41
78623;BME280;67943;54.412;9.502;2023-07-13T14:24:57;101263.22;;;21.85;56.72
78623;BME280;67943;54.412;9.502;2023-07-13T14:29:59;101268.22;;;22.34;56.68
78623;BME280;67943;54.412;9.502;2023-07-13T14:35:02;101278.84;;;22.36;54.26
78623;BME280;67943;54.412;9.502;2023-07-13T14:40:12;101279.16;;;22.17;55.61
78623;BME280;67943;54.412;9.502;2023-07-13T14:45:15;101271.00;;;22.18;55.42
78623;BME280;67943;54.412;9.502;2023-07-13T14:50:20;101280.47;;;22.24;54.68
78623;BME280;67943;54.412;9.502;2023-07-13T14:55:21;101270.03;;;22.48;56.12
78623;BME280;67943;54.412;9.502;2023-07-13T15:00:26;101271.53;;;22.66;52.95
78623;BME280;67943;54.412;9.502;2023-07-13T15:05:31;101265.09;;;22.69;52.28
78623;BME280;67943;54.412;9.502;2023-07-13T15:10:33;101275.34;;;22.62;51.12
78623;BME280;67943;54.412;9.502;2023-07-13T15:15:36;101295.69;;;22.38;50.27
78623;BME280;67943;54.412;9.502;2023-07-13T15:20:39;101280.97;;;22.45;52.40
78623;BME280;67943;54.412;9.502;2023-07-13T15:25:42;101288.91;;;22.32;52.86
78623;BME280;67943;54.412;9.502;2023-07-13T15:30:46;101288.09;;;22.73;53.28
78623;BME280;67943;54.412;9.502;2023-07-13T15:35:49;101296.63;;;22.65;52.78
78623;BME280;67943;54.412;9.502;2023-07-13T15:40:52;101289.19;;;22.13;52.74
78623;BME280;67943;54.412;9.502;2023-07-13T15:45:54;101288.28;;;21.99;54.78
78623;BME280;67943;54.412;9.502;2023-07-13T15:51:02;101297.34;;;21.96;55.46
78623;BME280;67943;54.412;9.502;2023-07-13T15:56:16;101301.03;;;22.23;54.71
78623;BME280;67943;54.412;9.502;2023-07-13T16:01:19;101304.03;;;22.19;54.54
78623;BME280;67943;54.412;9.502;2023-07-13T16:06:24;101302.13;;;21.77;55.08
78623;BME280;67943;54.412;9.502;2023-07-13T16:11:29;101303.66;;;21.81;56.20
78623;BME280;67943;54.412;9.502;2023-07-13T16:16:35;101311.09;;;21.76;56.17
78623;BME280;67943;54.412;9.502;2023-07-13T16:21:41;101307.38;;;21.34;55.84
78623;BME280;67943;54.412;9.502;2023-07-13T16:26:43;101303.31;;;20.96;57.17
78623;BME280;67943;54.412;9.502;2023-07-13T16:31:55;101310.81;;;20.73;59.08
78623;BME280;67943;54.412;9.502;2023-07-13T16:36:59;101308.97;;;20.58;60.20
78623;BME280;67943;54.412;9.502;2023-07-13T16:42:02;101307.97;;;20.76;60.41
78623;BME280;67943;54.412;9.502;2023-07-13T16:47:08;101310.38;;;20.49;60.88
78623;BME280;67943;54.412;9.502;2023-07-13T16:52:17;101319.41;;;20.30;61.73
78623;BME280;67943;54.412;9.502;2023-07-13T16:57:23;101315.53;;;20.19;62.29
78623;BME280;67943;54.412;9.502;2023-07-13T17:02:31;101317.50;;;20.16;62.63
78623;BME280;67943;54.412;9.502;2023-07-13T17:07:36;101325.72;;;20.29;62.19
78623;BME280;67943;54.412;9.502;2023-07-13T17:12:38;101338.00;;;20.15;61.82
78623;BME280;67943;54.412;9.502;2023-07-13T17:17:39;101338.41;;;19.73;63.68
78623;BME280;67943;54.412;9.502;2023-07-13T17:22:44;101353.28;;;19.62;64.84
78623;BME280;67943;54.412;9.502;2023-07-13T17:27:47;101333.22;;;19.70;65.47
78623;BME280;67943;54.412;9.502;2023-07-13T17:32:50;101350.19;;;20.04;61.09
78623;BME280;67943;54.412;9.502;2023-07-13T17:37:55;101349.97;;;20.08;58.06
78623;BME280;67943;54.412;9.502;2023-07-13T17:42:57;101352.63;;;20.08;58.90
78623;BME280;67943;54.412;9.502;2023-07-13T17:47:59;101350.66;;;19.95;60.53
78623;BME280;67943;54.412;9.502;2023-07-13T17:53:12;101358.78;;;19.59;62.82
78623;BME280;67943;54.412;9.502;2023-07-13T17:58:15;101371.47;;;19.35;64.69
78623;BME280;67943;54.412;9.502;2023-07-13T18:03:20;101377.53;;;19.38;66.23
78623;BME280;67943;54.412;9.502;2023-07-13T18:08:26;101388.00;;;19.24;70.76
78623;BME280;67943;54.412;9.502;2023-07-13T18:13:29;101384.03;;;19.14;71.84
78623;BME280;67943;54.412;9.502;2023-07-13T18:18:34;101376.00;;;18.97;72.04
78623;BME280;67943;54.412;9.502;2023-07-13T18:23:37;101377.16;;;18.72;72.82
78623;BME280;67943;54.412;9.502;2023-07-13T18:28:39;101391.56;;;18.68;73.84
78623;BME280;67943;54.412;9.502;2023-07-13T18:33:41;101395.00;;;18.50;74.47
78623;BME280;67943;54.412;9.502;2023-07-13T18:38:47;101394.38;;;18.45;74.53
78623;BME280;67943;54.412;9.502;2023-07-13T18:43:49;101392.63;;;18.44;74.25
78623;BME280;67943;54.412;9.502;2023-07-13T18:48:52;101410.47;;;18.42;73.54
78623;BME280;67943;54.412;9.502;2023-07-13T18:53:55;101407.34;;;18.32;72.59
78623;BME280;67943;54.412;9.502;2023-07-13T18:58:56;101416.97;;;18.16;72.53
78623;BME280;67943;54.412;9.502;2023-07-13T19:03:58;101425.16;;;18.11;73.09
78623;BME280;67943;54.412;9.502;2023-07-13T19:09:04;101416.72;;;18.20;74.37
78623;BME280;67943;54.412;9.502;2023-07-13T19:14:08;101423.66;;;18.25;75.74
78623;BME280;67943;54.412;9.502;2023-07-13T19:19:12;101421.50;;;17.92;77.59
78623;BME280;67943;54.412;9.502;2023-07-13T19:24:19;101421.75;;;17.64;78.72
78623;BME280;67943;54.412;9.502;2023-07-13T19:29:23;101424.25;;;17.47;79.50
78623;BME280;67943;54.412;9.502;2023-07-13T19:34:26;101437.22;;;17.33;80.07
78623;BME280;67943;54.412;9.502;2023-07-13T19:39:34;101439.81;;;17.34;79.83
78623;BME280;67943;54.412;9.502;2023-07-13T19:44:39;101440.56;;;17.38;79.65
78623;BME280;67943;54.412;9.502;2023-07-13T19:49:42;101459.03;;;17.19;79.59
78623;BME280;67943;54.412;9.502;2023-07-13T19:54:49;101445.72;;;16.97;79.45
78623;BME280;67943;54.412;9.502;2023-07-13T19:59:52;101453.63;;;16.99;80.09
78623;BME280;67943;54.412;9.502;2023-07-13T20:04:54;101450.50;;;16.87;81.16
78623;BME280;67943;54.412;9.502;2023-07-13T20:09:57;101460.47;;;16.81;81.52
78623;BME280;67943;54.412;9.502;2023-07-13T20:14:58;101467.53;;;16.82;82.03
78623;BME280;67943;54.412;9.502;2023-07-13T20:20:00;101469.22;;;16.84;81.97
78623;BME280;67943;54.412;9.502;2023-07-13T20:25:13;101473.66;;;16.84;81.71
78623;BME280;67943;54.412;9.502;2023-07-13T20:30:16;101481.84;;;16.78;82.30
78623;BME280;67943;54.412;9.502;2023-07-13T20:35:26;101479.50;;;16.70;82.21
78623;BME280;67943;54.412;9.502;2023-07-13T20:40:32;101486.84;;;16.62;82.54
78623;BME280;67943;54.412;9.502;2023-07-13T20:45:34;101479.59;;;16.67;82.51
78623;BME280;67943;54.412;9.502;2023-07-13T20:50:36;101486.75;;;16.65;82.03
78623;BME280;67943;54.412;9.502;2023-07-13T20:55:39;101490.63;;;16.55;81.97
78623;BME280;67943;54.412;9.502;2023-07-13T21:00:41;101499.56;;;16.52;82.19
78623;BME280;67943;54.412;9.502;2023-07-13T21:05:43;101517.41;;;16.49;82.32
78623;BME280;67943;54.412;9.502;2023-07-13T21:10:46;101514.75;;;16.49;82.01
78623;BME280;67943;54.412;9.502;2023-07-13T21:15:48;101513.19;;;16.43;82.48
78623;BME280;67943;54.412;9.502;2023-07-13T21:20:51;101514.16;;;16.41;82.67
78623;BME280;67943;54.412;9.502;2023-07-13T21:25:55;101522.22;;;16.38;82.68
78623;BME280;67943;54.412;9.502;2023-07-13T21:31:00;101517.94;;;16.34;82.67
78623;BME280;67943;54.412;9.502;2023-07-13T21:36:03;101520.75;;;16.29;82.84
78623;BME280;67943;54.412;9.502;2023-07-13T21:41:16;101520.59;;;16.34;81.97
78623;BME280;67943;54.412;9.502;2023-07-13T21:46:21;101534.38;;;16.18;82.60
78623;BME280;67943;54.412;9.502;2023-07-13T21:51:24;101531.13;;;16.10;83.00
78623;BME280;67943;54.412;9.502;2023-07-13T21:56:28;101531.38;;;16.03;83.42
78623;BME280;67943;54.412;9.502;2023-07-13T22:01:31;101526.97;;;16.02;83.42
78623;BME280;67943;54.412;9.502;2023-07-13T22:06:33;101530.44;;;16.04;83.22
78623;BME280;67943;54.412;9.502;2023-07-13T22:11:38;101529.66;;;16.00;83.47
78623;BME280;67943;54.412;9.502;2023-07-13T22:16:40;101537.91;;;15.91;84.00
78623;BME280;67943;54.412;9.502;2023-07-13T22:21:41;101532.66;;;15.90;83.95
78623;BME280;67943;54.412;9.502;2023-07-13T22:26:44;101532.00;;;15.83;84.03
78623;BME280;67943;54.412;9.502;2023-07-13T22:31:46;101522.44;;;15.77;84.22
78623;BME280;67943;54.412;9.502;2023-07-13T22:36:48;101528.72;;;15.75;84.22
78623;BME280;67943;54.412;9.502;2023-07-13T22:41:51;101534.16;;;15.70;84.75
78623;BME280;67943;54.412;9.502;2023-07-13T22:46:54;101541.16;;;15.73;84.04
78623;BME280;67943;54.412;9.502;2023-07-13T22:51:56;101541.31;;;15.68;83.54
78623;BME280;67943;54.412;9.502;2023-07-13T22:57:00;101530.91;;;15.61;84.14
78623;BME280;67943;54.412;9.502;2023-07-13T23:02:03;101536.34;;;15.58;83.90
78623;BME280;67943;54.412;9.502;2023-07-13T23:07:04;101539.91;;;15.57;82.99
78623;BME280;67943;54.412;9.502;2023-07-13T23:12:09;101543.53;;;15.52;83.64
78623;BME280;67943;54.412;9.502;2023-07-13T23:17:11;101536.41;;;15.54;83.20
78623;BME280;67943;54.412;9.502;2023-07-13T23:22:19;101540.09;;;15.49;82.82
78623;BME280;67943;54.412;9.502;2023-07-13T23:27:25;101535.81;;;15.45;82.59
78623;BME280;67943;54.412;9.502;2023-07-13T23:32:26;101546.41;;;15.45;82.46
78623;BME280;67943;54.412;9.502;2023-07-13T23:37:28;101557.16;;;15.40;83.04
78623;BME280;67943;54.412;9.502;2023-07-13T23:42:31;101547.47;;;15.39;81.95
78623;BME280;67943;54.412;9.502;2023-07-13T23:47:32;101549.66;;;15.25;81.99
78623;BME280;67943;54.412;9.502;2023-07-13T23:52:34;101550.66;;;15.21;82.41
78623;BME280;67943;54.412;9.502;2023-07-13T23:57:37;101545.47;;;15.16;82.34
